Habib Express — 5IM379 — position and weather

sailwx.info

Track history (hours):
 
Tides and Currents Weather Stations Pressure Air Temp Water Temp Dewpoint Dewpoint Depression Visibility Wind Speed Wind Dir Waves Ship Positions

Habib Express

Last reported at 2018-Jun-14 05:21 UTC. Time now 2018-Jun-18 13:07 UTC.
Position N 25°26' W 079°54'.

Length 90 m; draft 3.7 m.

Type: Cargo ship. MMSI: 677027900.

Date/timePositionNaut miles runAvg speedWind from/ knotsBaromVisibWave heightAir tempDewpointWater temp
2018-Jun-14 05:21N 25°26' W 079°54'3 9.0
2018-Jun-14 05:00N 25°29' W 079°55'5 9.7
2018-Jun-14 04:30N 25°34' W 079°57'510.4
2018-Jun-14 04:00N 25°38' W 079°59'510.8
2018-Jun-14 03:30N 25°43' W 080°02'4 9.0
2018-Jun-14 03:00N 25°46' W 080°06'4 7.6
2018-Jun-14 02:29N 25°46' W 080°11'1 2.6
2018-Jun-14 02:00N 25°46' W 080°12'1 2.9
2018-Jun-14 01:30N 25°47' W 080°13'1 2.5
2018-Jun-14 01:00N 25°48' W 080°15'0 0.2
2018-Jun-14 00:30N 25°48' W 080°15'0 0.0
2018-Jun-14 00:00N 25°48' W 080°15'0 0.0
2018-Jun-13 23:30N 25°48' W 080°15'0 0.0
2018-Jun-13 23:00N 25°48' W 080°15'0 0.0
2018-Jun-13 22:30N 25°48' W 080°15'0 0.0
2018-Jun-13 22:00N 25°48' W 080°15'0 0.0
2018-Jun-13 21:30N 25°48' W 080°15'0 0.0
2018-Jun-13 21:00N 25°48' W 080°15'0 0.0
2018-Jun-13 20:30N 25°48' W 080°15'0 0.0
2018-Jun-13 20:00N 25°48' W 080°15'0 0.0
2018-Jun-13 19:30N 25°48' W 080°15'0 0.0
2018-Jun-13 19:00N 25°48' W 080°15'0 0.0
2018-Jun-13 18:30N 25°48' W 080°15'0 0.0
2018-Jun-13 17:57N 25°48' W 080°15'0 0.0
2018-Jun-13 17:30N 25°48' W 080°15'0 0.0
2018-Jun-13 16:57N 25°48' W 080°15'0 0.0
2018-Jun-13 16:30N 25°48' W 080°15'0 0.0
2018-Jun-13 16:00N 25°48' W 080°15'0 0.0
2018-Jun-13 15:27N 25°48' W 080°15'0 0.0
2018-Jun-13 15:00N 25°48' W 080°15'0 0.0
2018-Jun-13 14:27N 25°48' W 080°15'0 0.0
2018-Jun-13 14:00N 25°48' W 080°15'0 0.0
2018-Jun-13 13:27N 25°48' W 080°15'0 0.0
2018-Jun-13 13:00N 25°48' W 080°15'0 0.0
2018-Jun-13 12:27N 25°48' W 080°15'0 0.0
2018-Jun-13 12:00N 25°48' W 080°15'0 0.0
2018-Jun-13 11:30N 25°48' W 080°15'0 0.0
2018-Jun-13 11:00N 25°48' W 080°15'0 0.0
2018-Jun-13 10:30N 25°48' W 080°15'0 0.0
2018-Jun-13 10:00N 25°48' W 080°15'0 0.0
2018-Jun-13 09:30N 25°48' W 080°15'0 0.0
2018-Jun-13 09:00N 25°48' W 080°15'0 0.0
2018-Jun-13 08:30N 25°48' W 080°15'0 0.0
2018-Jun-13 08:00N 25°48' W 080°15'0 0.0
2018-Jun-13 07:30N 25°48' W 080°15'0 0.0
2018-Jun-13 07:00N 25°48' W 080°15'0 0.0
2018-Jun-13 06:30N 25°48' W 080°15'0 0.0
2018-Jun-13 06:00N 25°48' W 080°15'0 0.0
2018-Jun-13 05:30N 25°48' W 080°15'0 0.0
2018-Jun-13 05:00N 25°48' W 080°15'0 0.0
2018-Jun-13 04:30N 25°48' W 080°15'0 0.0
2018-Jun-13 03:54N 25°48' W 080°15'0 0.0
2018-Jun-13 03:21N 25°48' W 080°15'0 0.0
2018-Jun-13 02:54N 25°48' W 080°15'0 0.0
2018-Jun-13 02:30N 25°48' W 080°15'0 0.0
2018-Jun-13 02:00N 25°48' W 080°15'0 0.0
2018-Jun-13 01:30N 25°48' W 080°15'0 0.0
2018-Jun-13 01:00N 25°48' W 080°15'0 0.0
2018-Jun-13 00:30N 25°48' W 080°15'0 0.0
2018-Jun-12 23:57N 25°48' W 080°15'0 0.0
2018-Jun-12 23:30N 25°48' W 080°15'0 0.0
2018-Jun-12 23:00N 25°48' W 080°15'0 0.0
2018-Jun-12 22:30N 25°48' W 080°15'0 0.0
2018-Jun-12 21:57N 25°48' W 080°15'0 0.0
2018-Jun-12 21:27N 25°48' W 080°15'0 0.0
2018-Jun-12 21:00N 25°48' W 080°15'0 0.0
2018-Jun-12 20:30N 25°48' W 080°15'0 0.0
2018-Jun-12 20:00N 25°48' W 080°15'0 0.0
2018-Jun-12 19:30N 25°48' W 080°15'0 0.0
2018-Jun-12 19:00N 25°48' W 080°15'0 0.0
2018-Jun-12 18:30N 25°48' W 080°15'0 0.0
2018-Jun-12 18:00N 25°48' W 080°15'0 0.0
2018-Jun-12 17:27N 25°48' W 080°15'0 0.0
2018-Jun-12 16:57N 25°48' W 080°15'0 0.0
2018-Jun-12 16:30N 25°48' W 080°15'0 0.0
2018-Jun-12 16:00N 25°48' W 080°15'0 0.0
2018-Jun-12 15:30N 25°48' W 080°15'0 0.0
2018-Jun-12 15:00N 25°48' W 080°15'0 0.0
2018-Jun-12 14:30N 25°48' W 080°15'0 0.0
2018-Jun-12 13:57N 25°48' W 080°15'0 0.0
2018-Jun-12 13:27N 25°48' W 080°15'0 0.0
2018-Jun-12 12:51N 25°48' W 080°15'0 0.0
2018-Jun-12 12:24N 25°48' W 080°15'0 0.0
2018-Jun-12 11:54N 25°48' W 080°15'0 0.0
2018-Jun-12 11:30N 25°48' W 080°15'0 0.0
2018-Jun-12 10:54N 25°48' W 080°15'0 0.0
2018-Jun-12 10:24N 25°48' W 080°15'0 0.0
2018-Jun-12 10:00N 25°48' W 080°15'0 0.0
2018-Jun-12 09:30N 25°48' W 080°15'0 0.0
2018-Jun-12 08:57N 25°48' W 080°15'0 0.0
2018-Jun-12 08:27N 25°48' W 080°15'0 0.0
2018-Jun-12 08:00N 25°48' W 080°15'0 0.0
2018-Jun-12 07:27N 25°48' W 080°15'0 0.0
2018-Jun-12 07:00N 25°48' W 080°15'0 0.0
2018-Jun-12 06:30N 25°48' W 080°15'0 0.0
2018-Jun-12 06:00N 25°48' W 080°15'0 0.0
2018-Jun-12 05:30N 25°48' W 080°15'0 0.0
2018-Jun-12 05:00N 25°48' W 080°15'0 0.0
2018-Jun-12 04:30N 25°48' W 080°15'0 0.0
2018-Jun-12 04:00N 25°48' W 080°15'0 0.0
2018-Jun-12 03:30N 25°48' W 080°15'0 0.0
2018-Jun-12 03:00N 25°48' W 080°15'0 0.0
2018-Jun-12 02:30N 25°48' W 080°15'0 0.0
2018-Jun-12 02:00N 25°48' W 080°15'0 0.0
2018-Jun-12 01:30N 25°48' W 080°15'0 0.0
2018-Jun-12 01:00N 25°48' W 080°15'0 0.0
2018-Jun-12 00:30N 25°48' W 080°15'0 0.0
2018-Jun-11 23:51N 25°48' W 080°15'0 0.0
2018-Jun-11 23:27N 25°48' W 080°15'0 0.0
2018-Jun-11 22:57N 25°48' W 080°15'0 0.0
2018-Jun-11 22:30N 25°48' W 080°15'0 0.0
2018-Jun-11 22:00N 25°48' W 080°15'0 0.0
2018-Jun-11 21:30N 25°48' W 080°15'0 0.0
2018-Jun-11 21:00N 25°48' W 080°15'0 0.0
2018-Jun-11 20:27N 25°48' W 080°15'0 0.0
2018-Jun-11 19:57N 25°48' W 080°15'0 0.0
2018-Jun-11 19:30N 25°48' W 080°15'0 0.0
2018-Jun-11 19:00N 25°48' W 080°15'0 0.0
2018-Jun-11 18:27N 25°48' W 080°15'0 0.0
2018-Jun-11 18:00N 25°48' W 080°15'0 0.0
2018-Jun-11 17:30N 25°48' W 080°15'0 0.0
2018-Jun-11 17:00N 25°48' W 080°15'0 0.0
2018-Jun-11 16:30N 25°48' W 080°15'0 0.0
2018-Jun-11 16:00N 25°48' W 080°15'0 0.0
2018-Jun-11 15:30N 25°48' W 080°15'0 0.0
2018-Jun-11 15:00N 25°48' W 080°15'0 0.0
2018-Jun-11 14:30N 25°48' W 080°15'0 0.0
2018-Jun-11 14:00N 25°48' W 080°15'0 0.0
2018-Jun-11 13:30N 25°48' W 080°15'0 0.0
2018-Jun-11 13:00N 25°48' W 080°15'0 0.0
2018-Jun-11 12:30N 25°48' W 080°15'0 0.0
2018-Jun-11 12:00N 25°48' W 080°15'0 0.0
2018-Jun-11 11:30N 25°48' W 080°15'0 0.0
2018-Jun-11 11:00N 25°48' W 080°15'0 0.0
2018-Jun-11 10:30N 25°48' W 080°15'0 0.0
2018-Jun-11 10:00N 25°48' W 080°15'0 0.0
2018-Jun-11 09:30N 25°48' W 080°15'0 0.0
2018-Jun-11 09:00N 25°48' W 080°15'0 0.0
2018-Jun-11 08:30N 25°48' W 080°15'0 0.0
2018-Jun-11 08:00N 25°48' W 080°15'0 0.0
2018-Jun-11 07:30N 25°48' W 080°15'0 0.0
2018-Jun-11 07:00N 25°48' W 080°15'0 0.0
2018-Jun-11 06:30N 25°48' W 080°15'0 0.0
2018-Jun-11 06:00N 25°48' W 080°15'0 0.0
2018-Jun-11 05:30N 25°48' W 080°15'0 0.0
2018-Jun-11 05:00N 25°48' W 080°15'0 0.0
2018-Jun-11 04:30N 25°48' W 080°15'0 0.0
2018-Jun-11 04:00N 25°48' W 080°15'0 0.0
2018-Jun-11 03:30N 25°48' W 080°15'0 0.0
2018-Jun-11 03:00N 25°48' W 080°15'0 0.0
2018-Jun-11 02:30N 25°48' W 080°15'0 0.0
2018-Jun-11 02:00N 25°48' W 080°15'0 0.0
2018-Jun-11 01:30N 25°48' W 080°15'0 0.0
2018-Jun-11 01:00N 25°48' W 080°15'0 0.0
2018-Jun-11 00:30N 25°48' W 080°15'0 0.0
2018-Jun-11 00:00N 25°48' W 080°15'0 0.0
2018-Jun-10 23:30N 25°48' W 080°15'0 0.0
2018-Jun-10 23:00N 25°48' W 080°15'0 0.0
2018-Jun-10 22:30N 25°48' W 080°15'0 0.0
2018-Jun-10 22:00N 25°48' W 080°15'0 0.0
2018-Jun-10 21:30N 25°48' W 080°15'0 0.0
2018-Jun-10 20:54N 25°48' W 080°15'0 0.0
2018-Jun-10 20:30N 25°48' W 080°15'0 0.0
2018-Jun-10 20:00N 25°48' W 080°15'0 0.0
2018-Jun-10 19:30N 25°48' W 080°15'0 0.0
2018-Jun-10 18:54N 25°48' W 080°15'0 0.0
2018-Jun-10 18:30N 25°48' W 080°15'0 0.0
2018-Jun-10 18:00N 25°48' W 080°15'0 0.0
2018-Jun-10 17:30N 25°48' W 080°15'0 0.0
2018-Jun-10 17:00N 25°48' W 080°15'0 0.0
2018-Jun-10 16:30N 25°48' W 080°15'0 0.0
2018-Jun-10 16:00N 25°48' W 080°15'0 0.0
2018-Jun-10 15:21N 25°48' W 080°15'0 0.0
2018-Jun-10 15:00N 25°48' W 080°15'0 0.0
2018-Jun-10 14:30N 25°48' W 080°15'0 0.0
2018-Jun-10 13:27N 25°48' W 080°15'0 0.0
2018-Jun-10 13:00N 25°48' W 080°15'0 0.0
2018-Jun-10 12:30N 25°48' W 080°15'0 0.1
2018-Jun-10 12:00N 25°48' W 080°15'0 0.1
2018-Jun-10 11:30N 25°48' W 080°15'1 2.5
2018-Jun-10 11:00N 25°47' W 080°14'1 2.6
2018-Jun-10 10:30N 25°47' W 080°12'1 2.1
2018-Jun-10 10:00N 25°46' W 080°11'3 5.6
2018-Jun-10 09:30N 25°46' W 080°08'3 5.3
2018-Jun-10 09:00N 25°46' W 080°05'1 1.1
2018-Jun-10 08:29N 25°47' W 080°06'0 0.0
2018-Jun-10 07:59N 25°47' W 080°06'0 0.1
2018-Jun-10 07:29N 25°47' W 080°06'0 0.0
2018-Jun-10 06:59N 25°47' W 080°06'0 0.0
2018-Jun-10 06:29N 25°47' W 080°06'0 0.0
2018-Jun-10 05:56N 25°47' W 080°06'0 0.0
2018-Jun-10 05:26N 25°47' W 080°06'0 0.0
2018-Jun-10 04:53N 25°47' W 080°06'0 0.0
2018-Jun-10 04:23N 25°47' W 080°06'0 0.0
2018-Jun-10 03:56N 25°47' W 080°06'0 0.0
2018-Jun-10 03:29N 25°47' W 080°06'0 0.0
2018-Jun-10 02:56N 25°47' W 080°06'0 0.0
2018-Jun-10 02:29N 25°47' W 080°06'0 0.0
2018-Jun-10 01:59N 25°47' W 080°06'0 0.0
2018-Jun-10 01:26N 25°47' W 080°06'0 0.0
2018-Jun-10 00:56N 25°47' W 080°06'0 0.0
2018-Jun-10 00:29N 25°47' W 080°06'0 0.0
2018-Jun-09 23:59N 25°47' W 080°06'0 0.0
2018-Jun-09 23:29N 25°47' W 080°06'0 0.0
2018-Jun-09 22:59N 25°47' W 080°06'0 0.2
2018-Jun-09 22:30N 25°47' W 080°06'2 4.4
2018-Jun-09 22:00N 25°45' W 080°04'612.8
2018-Jun-09 21:30N 25°39' W 080°01'714.0
2018-Jun-09 21:00N 25°33' W 079°59'714.5
2018-Jun-09 20:30N 25°26' W 079°55'  
Track history (hours):
 
Tides and Currents Weather Stations Pressure Air Temp Water Temp Dewpoint Dewpoint Depression Visibility Wind Speed Wind Dir Waves Ship Positions

Habib Express

Last reported at 2018-Jun-14 05:21 UTC. Time now 2018-Jun-18 13:07 UTC.
Position N 25°26' W 079°54'.

Length 90 m; draft 3.7 m.

Type: Cargo ship. MMSI: 677027900.

Date/timePositionNaut miles runAvg speedWind from/ knotsBaromVisibWave heightAir tempDewpointWater temp
2018-Jun-14 05:21N 25°26' W 079°54'3 9.0
2018-Jun-14 05:00N 25°29' W 079°55'5 9.7
2018-Jun-14 04:30N 25°34' W 079°57'510.4
2018-Jun-14 04:00N 25°38' W 079°59'510.8
2018-Jun-14 03:30N 25°43' W 080°02'4 9.0
2018-Jun-14 03:00N 25°46' W 080°06'4 7.6
2018-Jun-14 02:29N 25°46' W 080°11'1 2.6
2018-Jun-14 02:00N 25°46' W 080°12'1 2.9
2018-Jun-14 01:30N 25°47' W 080°13'1 2.5
2018-Jun-14 01:00N 25°48' W 080°15'0 0.2
2018-Jun-14 00:30N 25°48' W 080°15'0 0.0
2018-Jun-14 00:00N 25°48' W 080°15'0 0.0
2018-Jun-13 23:30N 25°48' W 080°15'0 0.0
2018-Jun-13 23:00N 25°48' W 080°15'0 0.0
2018-Jun-13 22:30N 25°48' W 080°15'0 0.0
2018-Jun-13 22:00N 25°48' W 080°15'0 0.0
2018-Jun-13 21:30N 25°48' W 080°15'0 0.0
2018-Jun-13 21:00N 25°48' W 080°15'0 0.0
2018-Jun-13 20:30N 25°48' W 080°15'0 0.0
2018-Jun-13 20:00N 25°48' W 080°15'0 0.0
2018-Jun-13 19:30N 25°48' W 080°15'0 0.0
2018-Jun-13 19:00N 25°48' W 080°15'0 0.0
2018-Jun-13 18:30N 25°48' W 080°15'0 0.0
2018-Jun-13 17:57N 25°48' W 080°15'0 0.0
2018-Jun-13 17:30N 25°48' W 080°15'0 0.0
2018-Jun-13 16:57N 25°48' W 080°15'0 0.0
2018-Jun-13 16:30N 25°48' W 080°15'0 0.0
2018-Jun-13 16:00N 25°48' W 080°15'0 0.0
2018-Jun-13 15:27N 25°48' W 080°15'0 0.0
2018-Jun-13 15:00N 25°48' W 080°15'0 0.0
2018-Jun-13 14:27N 25°48' W 080°15'0 0.0
2018-Jun-13 14:00N 25°48' W 080°15'0 0.0
2018-Jun-13 13:27N 25°48' W 080°15'0 0.0
2018-Jun-13 13:00N 25°48' W 080°15'0 0.0
2018-Jun-13 12:27N 25°48' W 080°15'0 0.0
2018-Jun-13 12:00N 25°48' W 080°15'0 0.0
2018-Jun-13 11:30N 25°48' W 080°15'0 0.0
2018-Jun-13 11:00N 25°48' W 080°15'0 0.0
2018-Jun-13 10:30N 25°48' W 080°15'0 0.0
2018-Jun-13 10:00N 25°48' W 080°15'0 0.0
2018-Jun-13 09:30N 25°48' W 080°15'0 0.0
2018-Jun-13 09:00N 25°48' W 080°15'0 0.0
2018-Jun-13 08:30N 25°48' W 080°15'0 0.0
2018-Jun-13 08:00N 25°48' W 080°15'0 0.0
2018-Jun-13 07:30N 25°48' W 080°15'0 0.0
2018-Jun-13 07:00N 25°48' W 080°15'0 0.0
2018-Jun-13 06:30N 25°48' W 080°15'0 0.0
2018-Jun-13 06:00N 25°48' W 080°15'0 0.0
2018-Jun-13 05:30N 25°48' W 080°15'0 0.0
2018-Jun-13 05:00N 25°48' W 080°15'0 0.0
2018-Jun-13 04:30N 25°48' W 080°15'0 0.0
2018-Jun-13 03:54N 25°48' W 080°15'0 0.0
2018-Jun-13 03:21N 25°48' W 080°15'0 0.0
2018-Jun-13 02:54N 25°48' W 080°15'0 0.0
2018-Jun-13 02:30N 25°48' W 080°15'0 0.0
2018-Jun-13 02:00N 25°48' W 080°15'0 0.0
2018-Jun-13 01:30N 25°48' W 080°15'0 0.0
2018-Jun-13 01:00N 25°48' W 080°15'0 0.0
2018-Jun-13 00:30N 25°48' W 080°15'0 0.0
2018-Jun-12 23:57N 25°48' W 080°15'0 0.0
2018-Jun-12 23:30N 25°48' W 080°15'0 0.0
2018-Jun-12 23:00N 25°48' W 080°15'0 0.0
2018-Jun-12 22:30N 25°48' W 080°15'0 0.0
2018-Jun-12 21:57N 25°48' W 080°15'0 0.0
2018-Jun-12 21:27N 25°48' W 080°15'0 0.0
2018-Jun-12 21:00N 25°48' W 080°15'0 0.0
2018-Jun-12 20:30N 25°48' W 080°15'0 0.0
2018-Jun-12 20:00N 25°48' W 080°15'0 0.0
2018-Jun-12 19:30N 25°48' W 080°15'0 0.0
2018-Jun-12 19:00N 25°48' W 080°15'0 0.0
2018-Jun-12 18:30N 25°48' W 080°15'0 0.0
2018-Jun-12 18:00N 25°48' W 080°15'0 0.0
2018-Jun-12 17:27N 25°48' W 080°15'0 0.0
2018-Jun-12 16:57N 25°48' W 080°15'0 0.0
2018-Jun-12 16:30N 25°48' W 080°15'0 0.0
2018-Jun-12 16:00N 25°48' W 080°15'0 0.0
2018-Jun-12 15:30N 25°48' W 080°15'0 0.0
2018-Jun-12 15:00N 25°48' W 080°15'0 0.0
2018-Jun-12 14:30N 25°48' W 080°15'0 0.0
2018-Jun-12 13:57N 25°48' W 080°15'0 0.0
2018-Jun-12 13:27N 25°48' W 080°15'0 0.0
2018-Jun-12 12:51N 25°48' W 080°15'0 0.0
2018-Jun-12 12:24N 25°48' W 080°15'0 0.0
2018-Jun-12 11:54N 25°48' W 080°15'0 0.0
2018-Jun-12 11:30N 25°48' W 080°15'0 0.0
2018-Jun-12 10:54N 25°48' W 080°15'0 0.0
2018-Jun-12 10:24N 25°48' W 080°15'0 0.0
2018-Jun-12 10:00N 25°48' W 080°15'0 0.0
2018-Jun-12 09:30N 25°48' W 080°15'0 0.0
2018-Jun-12 08:57N 25°48' W 080°15'0 0.0
2018-Jun-12 08:27N 25°48' W 080°15'0 0.0
2018-Jun-12 08:00N 25°48' W 080°15'0 0.0
2018-Jun-12 07:27N 25°48' W 080°15'0 0.0
2018-Jun-12 07:00N 25°48' W 080°15'0 0.0
2018-Jun-12 06:30N 25°48' W 080°15'0 0.0
2018-Jun-12 06:00N 25°48' W 080°15'0 0.0
2018-Jun-12 05:30N 25°48' W 080°15'0 0.0
2018-Jun-12 05:00N 25°48' W 080°15'0 0.0
2018-Jun-12 04:30N 25°48' W 080°15'0 0.0
2018-Jun-12 04:00N 25°48' W 080°15'0 0.0
2018-Jun-12 03:30N 25°48' W 080°15'0 0.0
2018-Jun-12 03:00N 25°48' W 080°15'0 0.0
2018-Jun-12 02:30N 25°48' W 080°15'0 0.0
2018-Jun-12 02:00N 25°48' W 080°15'0 0.0
2018-Jun-12 01:30N 25°48' W 080°15'0 0.0
2018-Jun-12 01:00N 25°48' W 080°15'0 0.0
2018-Jun-12 00:30N 25°48' W 080°15'0 0.0
2018-Jun-11 23:51N 25°48' W 080°15'0 0.0
2018-Jun-11 23:27N 25°48' W 080°15'0 0.0
2018-Jun-11 22:57N 25°48' W 080°15'0 0.0
2018-Jun-11 22:30N 25°48' W 080°15'0 0.0
2018-Jun-11 22:00N 25°48' W 080°15'0 0.0
2018-Jun-11 21:30N 25°48' W 080°15'0 0.0
2018-Jun-11 21:00N 25°48' W 080°15'0 0.0
2018-Jun-11 20:27N 25°48' W 080°15'0 0.0
2018-Jun-11 19:57N 25°48' W 080°15'0 0.0
2018-Jun-11 19:30N 25°48' W 080°15'0 0.0
2018-Jun-11 19:00N 25°48' W 080°15'0 0.0
2018-Jun-11 18:27N 25°48' W 080°15'0 0.0
2018-Jun-11 18:00N 25°48' W 080°15'0 0.0
2018-Jun-11 17:30N 25°48' W 080°15'0 0.0
2018-Jun-11 17:00N 25°48' W 080°15'0 0.0
2018-Jun-11 16:30N 25°48' W 080°15'0 0.0
2018-Jun-11 16:00N 25°48' W 080°15'0 0.0
2018-Jun-11 15:30N 25°48' W 080°15'0 0.0
2018-Jun-11 15:00N 25°48' W 080°15'0 0.0
2018-Jun-11 14:30N 25°48' W 080°15'0 0.0
2018-Jun-11 14:00N 25°48' W 080°15'0 0.0
2018-Jun-11 13:30N 25°48' W 080°15'0 0.0
2018-Jun-11 13:00N 25°48' W 080°15'0 0.0
2018-Jun-11 12:30N 25°48' W 080°15'0 0.0
2018-Jun-11 12:00N 25°48' W 080°15'0 0.0
2018-Jun-11 11:30N 25°48' W 080°15'0 0.0
2018-Jun-11 11:00N 25°48' W 080°15'0 0.0
2018-Jun-11 10:30N 25°48' W 080°15'0 0.0
2018-Jun-11 10:00N 25°48' W 080°15'0 0.0
2018-Jun-11 09:30N 25°48' W 080°15'0 0.0
2018-Jun-11 09:00N 25°48' W 080°15'0 0.0
2018-Jun-11 08:30N 25°48' W 080°15'0 0.0
2018-Jun-11 08:00N 25°48' W 080°15'0 0.0
2018-Jun-11 07:30N 25°48' W 080°15'0 0.0
2018-Jun-11 07:00N 25°48' W 080°15'0 0.0
2018-Jun-11 06:30N 25°48' W 080°15'0 0.0
2018-Jun-11 06:00N 25°48' W 080°15'0 0.0
2018-Jun-11 05:30N 25°48' W 080°15'0 0.0
2018-Jun-11 05:00N 25°48' W 080°15'0 0.0
2018-Jun-11 04:30N 25°48' W 080°15'0 0.0
2018-Jun-11 04:00N 25°48' W 080°15'0 0.0
2018-Jun-11 03:30N 25°48' W 080°15'0 0.0
2018-Jun-11 03:00N 25°48' W 080°15'0 0.0
2018-Jun-11 02:30N 25°48' W 080°15'0 0.0
2018-Jun-11 02:00N 25°48' W 080°15'0 0.0
2018-Jun-11 01:30N 25°48' W 080°15'0 0.0
2018-Jun-11 01:00N 25°48' W 080°15'0 0.0
2018-Jun-11 00:30N 25°48' W 080°15'0 0.0
2018-Jun-11 00:00N 25°48' W 080°15'0 0.0
2018-Jun-10 23:30N 25°48' W 080°15'0 0.0
2018-Jun-10 23:00N 25°48' W 080°15'0 0.0
2018-Jun-10 22:30N 25°48' W 080°15'0 0.0
2018-Jun-10 22:00N 25°48' W 080°15'0 0.0
2018-Jun-10 21:30N 25°48' W 080°15'0 0.0
2018-Jun-10 20:54N 25°48' W 080°15'0 0.0
2018-Jun-10 20:30N 25°48' W 080°15'0 0.0
2018-Jun-10 20:00N 25°48' W 080°15'0 0.0
2018-Jun-10 19:30N 25°48' W 080°15'0 0.0
2018-Jun-10 18:54N 25°48' W 080°15'0 0.0
2018-Jun-10 18:30N 25°48' W 080°15'0 0.0
2018-Jun-10 18:00N 25°48' W 080°15'0 0.0
2018-Jun-10 17:30N 25°48' W 080°15'0 0.0
2018-Jun-10 17:00N 25°48' W 080°15'0 0.0
2018-Jun-10 16:30N 25°48' W 080°15'0 0.0
2018-Jun-10 16:00N 25°48' W 080°15'0 0.0
2018-Jun-10 15:21N 25°48' W 080°15'0 0.0
2018-Jun-10 15:00N 25°48' W 080°15'0 0.0
2018-Jun-10 14:30N 25°48' W 080°15'0 0.0
2018-Jun-10 13:27N 25°48' W 080°15'0 0.0
2018-Jun-10 13:00N 25°48' W 080°15'0 0.0
2018-Jun-10 12:30N 25°48' W 080°15'0 0.1
2018-Jun-10 12:00N 25°48' W 080°15'0 0.1
2018-Jun-10 11:30N 25°48' W 080°15'1 2.5
2018-Jun-10 11:00N 25°47' W 080°14'1 2.6
2018-Jun-10 10:30N 25°47' W 080°12'1 2.1
2018-Jun-10 10:00N 25°46' W 080°11'3 5.6
2018-Jun-10 09:30N 25°46' W 080°08'3 5.3
2018-Jun-10 09:00N 25°46' W 080°05'1 1.1
2018-Jun-10 08:29N 25°47' W 080°06'0 0.0
2018-Jun-10 07:59N 25°47' W 080°06'0 0.1
2018-Jun-10 07:29N 25°47' W 080°06'0 0.0
2018-Jun-10 06:59N 25°47' W 080°06'0 0.0
2018-Jun-10 06:29N 25°47' W 080°06'0 0.0
2018-Jun-10 05:56N 25°47' W 080°06'0 0.0
2018-Jun-10 05:26N 25°47' W 080°06'0 0.0
2018-Jun-10 04:53N 25°47' W 080°06'0 0.0
2018-Jun-10 04:23N 25°47' W 080°06'0 0.0
2018-Jun-10 03:56N 25°47' W 080°06'0 0.0
2018-Jun-10 03:29N 25°47' W 080°06'0 0.0
2018-Jun-10 02:56N 25°47' W 080°06'0 0.0
2018-Jun-10 02:29N 25°47' W 080°06'0 0.0
2018-Jun-10 01:59N 25°47' W 080°06'0 0.0
2018-Jun-10 01:26N 25°47' W 080°06'0 0.0
2018-Jun-10 00:56N 25°47' W 080°06'0 0.0
2018-Jun-10 00:29N 25°47' W 080°06'0 0.0
2018-Jun-09 23:59N 25°47' W 080°06'0 0.0
2018-Jun-09 23:29N 25°47' W 080°06'0 0.0
2018-Jun-09 22:59N 25°47' W 080°06'0 0.2
2018-Jun-09 22:30N 25°47' W 080°06'2 4.4
2018-Jun-09 22:00N 25°45' W 080°04'612.8
2018-Jun-09 21:30N 25°39' W 080°01'714.0
2018-Jun-09 21:00N 25°33' W 079°59'714.5
2018-Jun-09 20:30N 25°26' W 079°55'  

Dump ship's entire track history